SAS7537 ENAL-LEPA
Flight info
| Callsign | SAS7537 |
|---|---|
| Flight time | N/A |
| Altitude | 36000 |
| Route | TUTOP Z105 FLS DCT GREFI DCT PAM DCT NIK UY131 LERVO DCT CIV DCT MEDIL DCT KUKOR DCT PPG DCT LORES |
| Aircraft | A320/M-SDE3FGHIJ1RWXYZ/ALB1 |
Departure
| Time | 2026-04-21 14:55 |
|---|---|
| Airport | Ålesund Airport (ENAL) |
Arrival
| Time | N/A |
|---|---|
| Airport | Palma de Mallorca Airport (LEPA) |
| Time | Latitude | Longitude | Altitude | Speed | Heading |
|---|---|---|---|---|---|
| 2026-04-21 14:41 | 62.55908 | 6.11470 | 69 ft | 0 kts | 153° |
| 2026-04-21 14:47 | 62.55916 | 6.11461 | 60 ft | 3 kts | 155° |
| 2026-04-21 14:48 | 62.55935 | 6.11446 | 59 ft | 3 kts | 168° |
| 2026-04-21 14:48 | 62.55954 | 6.11442 | 65 ft | 3 kts | 193° |
| 2026-04-21 14:48 | 62.55970 | 6.11457 | 59 ft | 2 kts | 236° |
| 2026-04-21 14:48 | 62.55974 | 6.11474 | 60 ft | 1 kts | 245° |
| 2026-04-21 14:49 | 62.55975 | 6.11476 | 60 ft | 0 kts | 245° |
| 2026-04-21 14:50 | 62.55972 | 6.11465 | 60 ft | 4 kts | 246° |
| 2026-04-21 14:50 | 62.55951 | 6.11369 | 67 ft | 9 kts | 243° |
| 2026-04-21 14:51 | 62.55924 | 6.11248 | 65 ft | 9 kts | 245° |
| 2026-04-21 14:51 | 62.55901 | 6.11119 | 64 ft | 9 kts | 259° |
| 2026-04-21 14:51 | 62.55908 | 6.10973 | 65 ft | 10 kts | 282° |
| 2026-04-21 14:51 | 62.55927 | 6.10816 | 65 ft | 11 kts | 285° |
| 2026-04-21 14:52 | 62.55947 | 6.10634 | 64 ft | 14 kts | 277° |
| 2026-04-21 14:52 | 62.55915 | 6.10420 | 64 ft | 16 kts | 245° |
| 2026-04-21 14:52 | 62.55864 | 6.10182 | 58 ft | 18 kts | 245° |
| 2026-04-21 14:52 | 62.55807 | 6.09915 | 60 ft | 21 kts | 246° |
| 2026-04-21 14:53 | 62.55748 | 6.09622 | 59 ft | 22 kts | 246° |
| 2026-04-21 14:53 | 62.55674 | 6.09309 | 58 ft | 25 kts | 241° |
| 2026-04-21 14:53 | 62.55601 | 6.09102 | 61 ft | 11 kts | 219° |
| 2026-04-21 14:53 | 62.55604 | 6.09030 | 56 ft | 7 kts | 44° |
| 2026-04-21 14:54 | 62.55621 | 6.09088 | 57 ft | 7 kts | 68° |
| 2026-04-21 14:54 | 62.55627 | 6.09122 | 57 ft | 0 kts | 67° |
| 2026-04-21 14:54 | 62.55676 | 6.09330 | 60 ft | 50 kts | 64° |
| 2026-04-21 14:54 | 62.55923 | 6.10470 | 62 ft | 114 kts | 64° |
| 2026-04-21 14:55 | 62.56359 | 6.12313 | 141 ft | 153 kts | 63° |
| 2026-04-21 14:55 | 62.56789 | 6.14353 | 828 ft | 147 kts | 64° |
| 2026-04-21 14:55 | 62.57237 | 6.16370 | 1455 ft | 150 kts | 57° |
| 2026-04-21 14:55 | 62.57799 | 6.18380 | 1698 ft | 164 kts | 56° |
| 2026-04-21 14:56 | 62.58440 | 6.20637 | 1838 ft | 187 kts | 56° |
| 2026-04-21 14:56 | 62.59168 | 6.23195 | 1972 ft | 212 kts | 58° |
| 2026-04-21 14:56 | 62.59976 | 6.26044 | 2378 ft | 228 kts | 58° |
| 2026-04-21 14:56 | 62.60811 | 6.29000 | 3079 ft | 231 kts | 59° |
| 2026-04-21 14:57 | 62.61414 | 6.32239 | 3783 ft | 234 kts | 83° |
| 2026-04-21 14:57 | 62.61293 | 6.35779 | 4442 ft | 239 kts | 108° |
| 2026-04-21 14:57 | 62.60461 | 6.38911 | 5109 ft | 244 kts | 134° |
| 2026-04-21 14:57 | 62.59052 | 6.40985 | 5782 ft | 248 kts | 160° |
| 2026-04-21 14:58 | 62.57338 | 6.41488 | 6446 ft | 252 kts | 187° |
| 2026-04-21 14:58 | 62.55684 | 6.40233 | 7087 ft | 255 kts | 216° |
| 2026-04-21 14:58 | 62.54376 | 6.37670 | 7741 ft | 257 kts | 225° |
| 2026-04-21 14:58 | 62.53096 | 6.34918 | 8445 ft | 259 kts | 225° |
| 2026-04-21 14:59 | 62.51808 | 6.32171 | 9143 ft | 261 kts | 225° |
| 2026-04-21 14:59 | 62.50505 | 6.29402 | 9865 ft | 262 kts | 225° |
| 2026-04-21 14:59 | 62.49197 | 6.26626 | 10556 ft | 264 kts | 225° |
| 2026-04-21 14:59 | 62.47876 | 6.23820 | 11167 ft | 266 kts | 225° |
| 2026-04-21 15:00 | 62.46503 | 6.21111 | 11757 ft | 270 kts | 218° |
| 2026-04-21 15:00 | 62.44953 | 6.18516 | 11905 ft | 292 kts | 218° |
| 2026-04-21 15:00 | 62.43282 | 6.15746 | 12039 ft | 312 kts | 218° |
| 2026-04-21 15:00 | 62.41504 | 6.12812 | 12175 ft | 331 kts | 217° |
| 2026-04-21 15:01 | 62.39643 | 6.09743 | 12551 ft | 341 kts | 217° |
| 2026-04-21 15:01 | 62.37753 | 6.06623 | 13153 ft | 343 kts | 218° |
| 2026-04-21 15:01 | 62.35852 | 6.03482 | 13773 ft | 344 kts | 217° |
| 2026-04-21 15:01 | 62.33939 | 6.00331 | 14341 ft | 348 kts | 217° |
| 2026-04-21 15:02 | 62.32005 | 5.97150 | 14858 ft | 351 kts | 217° |
| 2026-04-21 15:02 | 62.30050 | 5.93948 | 15383 ft | 353 kts | 217° |
| 2026-04-21 15:02 | 62.28084 | 5.90740 | 15899 ft | 355 kts | 217° |
| 2026-04-21 15:02 | 62.26103 | 5.87506 | 16393 ft | 358 kts | 217° |
| 2026-04-21 15:03 | 62.24108 | 5.84252 | 16889 ft | 361 kts | 217° |
| 2026-04-21 15:03 | 62.22124 | 5.81015 | 17405 ft | 364 kts | 216° |
| 2026-04-21 15:03 | 62.20102 | 5.77724 | 17984 ft | 364 kts | 216° |
| 2026-04-21 15:03 | 62.18074 | 5.74431 | 18518 ft | 366 kts | 216° |
| 2026-04-21 15:04 | 62.16032 | 5.71119 | 19010 ft | 369 kts | 216° |
| 2026-04-21 15:04 | 62.13971 | 5.67784 | 19470 ft | 372 kts | 216° |
| 2026-04-21 15:04 | 62.11897 | 5.64437 | 19944 ft | 374 kts | 216° |
| 2026-04-21 15:04 | 62.09806 | 5.61073 | 20460 ft | 376 kts | 216° |
| 2026-04-21 15:05 | 62.07710 | 5.57706 | 20972 ft | 378 kts | 216° |
| 2026-04-21 15:05 | 62.03471 | 5.50914 | 21859 ft | 383 kts | 216° |
| 2026-04-21 15:05 | 62.01256 | 5.47734 | 22285 ft | 385 kts | 208° |
| 2026-04-21 15:06 | 61.98794 | 5.45411 | 22692 ft | 388 kts | 198° |
| 2026-04-21 15:06 | 61.96191 | 5.44114 | 23088 ft | 390 kts | 188° |
| 2026-04-21 15:06 | 61.93498 | 5.43312 | 23483 ft | 393 kts | 188° |
| 2026-04-21 15:06 | 61.90737 | 5.42471 | 23893 ft | 395 kts | 188° |
| 2026-04-21 15:07 | 61.88005 | 5.41626 | 24250 ft | 398 kts | 188° |
| 2026-04-21 15:07 | 61.85259 | 5.40769 | 24582 ft | 400 kts | 188° |
| 2026-04-21 15:07 | 61.82490 | 5.39900 | 24919 ft | 402 kts | 188° |
| 2026-04-21 15:07 | 61.79675 | 5.39022 | 25286 ft | 403 kts | 188° |
| 2026-04-21 15:08 | 61.76897 | 5.38163 | 25638 ft | 404 kts | 188° |
| 2026-04-21 15:08 | 61.74369 | 5.37382 | 25935 ft | 405 kts | 188° |
| 2026-04-21 15:08 | 61.71266 | 5.36427 | 26280 ft | 407 kts | 188° |
| 2026-04-21 15:08 | 61.68411 | 5.35553 | 26597 ft | 409 kts | 188° |
| 2026-04-21 15:09 | 61.65586 | 5.34692 | 26902 ft | 411 kts | 188° |
| 2026-04-21 15:09 | 61.62749 | 5.33829 | 27190 ft | 413 kts | 188° |
| 2026-04-21 15:09 | 61.59902 | 5.32963 | 27500 ft | 415 kts | 188° |
| 2026-04-21 15:09 | 61.57033 | 5.32089 | 27799 ft | 416 kts | 188° |
| 2026-04-21 15:10 | 61.54155 | 5.31213 | 28097 ft | 418 kts | 188° |
| 2026-04-21 15:10 | 61.51267 | 5.30334 | 28392 ft | 420 kts | 188° |
| 2026-04-21 15:10 | 61.48370 | 5.29454 | 28689 ft | 422 kts | 188° |
| 2026-04-21 15:10 | 61.45461 | 5.28574 | 29060 ft | 421 kts | 188° |
| 2026-04-21 15:11 | 61.42564 | 5.27701 | 29466 ft | 420 kts | 188° |
| 2026-04-21 15:11 | 61.39674 | 5.26831 | 29886 ft | 419 kts | 188° |
| 2026-04-21 15:11 | 61.36782 | 5.25961 | 30300 ft | 418 kts | 188° |
| 2026-04-21 15:11 | 61.33904 | 5.25100 | 30670 ft | 417 kts | 188° |
| 2026-04-21 15:12 | 61.31028 | 5.24240 | 30986 ft | 417 kts | 188° |
| 2026-04-21 15:12 | 61.28143 | 5.23382 | 31273 ft | 418 kts | 188° |
| 2026-04-21 15:12 | 61.25247 | 5.22527 | 31554 ft | 419 kts | 187° |
| 2026-04-21 15:12 | 61.22357 | 5.21671 | 31857 ft | 419 kts | 188° |
| 2026-04-21 15:13 | 61.20443 | 5.21101 | 32096 ft | 418 kts | 188° |
| 2026-04-21 15:13 | 61.16617 | 5.19954 | 32493 ft | 419 kts | 187° |
| 2026-04-21 15:13 | 61.13730 | 5.19093 | 32775 ft | 420 kts | 187° |
| 2026-04-21 15:13 | 61.10835 | 5.18238 | 33067 ft | 420 kts | 187° |
| 2026-04-21 15:14 | 61.07895 | 5.17399 | 33347 ft | 421 kts | 184° |
| 2026-04-21 15:14 | 61.04960 | 5.17219 | 33623 ft | 420 kts | 177° |
| 2026-04-21 15:14 | 61.02028 | 5.17397 | 33901 ft | 421 kts | 177° |
| 2026-04-21 15:14 | 60.99097 | 5.17570 | 34176 ft | 422 kts | 177° |
| 2026-04-21 15:15 | 60.96155 | 5.17739 | 34426 ft | 422 kts | 177° |
| 2026-04-21 15:15 | 60.93214 | 5.17905 | 34651 ft | 423 kts | 177° |
| 2026-04-21 15:15 | 60.90307 | 5.18065 | 34860 ft | 423 kts | 177° |
| 2026-04-21 15:15 | 60.87327 | 5.18224 | 35056 ft | 423 kts | 177° |
| 2026-04-21 15:16 | 60.85375 | 5.18326 | 35185 ft | 424 kts | 177° |
| 2026-04-21 15:16 | 60.81456 | 5.18532 | 35424 ft | 424 kts | 177° |
| 2026-04-21 15:16 | 60.79489 | 5.18637 | 35543 ft | 425 kts | 177° |
| 2026-04-21 15:16 | 60.76520 | 5.18796 | 35718 ft | 425 kts | 177° |
| 2026-04-21 15:17 | 60.73550 | 5.18956 | 35875 ft | 426 kts | 177° |
| 2026-04-21 15:17 | 60.70581 | 5.19118 | 36041 ft | 426 kts | 177° |
| 2026-04-21 15:17 | 60.67600 | 5.19283 | 36203 ft | 427 kts | 177° |
| 2026-04-21 15:17 | 60.64626 | 5.19444 | 36384 ft | 427 kts | 177° |
| 2026-04-21 15:18 | 60.58678 | 5.19764 | 36483 ft | 432 kts | 176° |
| 2026-04-21 15:18 | 60.52653 | 5.20090 | 36488 ft | 433 kts | 176° |
| 2026-04-21 15:19 | 60.46614 | 5.20414 | 36487 ft | 433 kts | 176° |
| 2026-04-21 15:19 | 60.40586 | 5.20723 | 36489 ft | 433 kts | 176° |
| 2026-04-21 15:20 | 60.34546 | 5.21039 | 36499 ft | 433 kts | 177° |
| 2026-04-21 15:20 | 60.28546 | 5.21428 | 36504 ft | 433 kts | 176° |
| 2026-04-21 15:21 | 60.22526 | 5.22268 | 36506 ft | 433 kts | 174° |
| 2026-04-21 15:21 | 60.16504 | 5.23251 | 36508 ft | 433 kts | 174° |
| 2026-04-21 15:22 | 60.10490 | 5.24149 | 36505 ft | 433 kts | 174° |
| 2026-04-21 15:22 | 60.04466 | 5.24983 | 36514 ft | 433 kts | 175° |
| 2026-04-21 15:23 | 59.98478 | 5.25795 | 36528 ft | 433 kts | 175° |
| 2026-04-21 15:23 | 59.92460 | 5.26609 | 36533 ft | 432 kts | 175° |
| 2026-04-21 15:24 | 59.86410 | 5.27454 | 36538 ft | 432 kts | 175° |
| 2026-04-21 15:24 | 59.80396 | 5.28287 | 36536 ft | 432 kts | 175° |
| 2026-04-21 15:25 | 59.74380 | 5.29094 | 36507 ft | 432 kts | 175° |
| 2026-04-21 15:25 | 59.68365 | 5.29910 | 36510 ft | 431 kts | 175° |
| 2026-04-21 15:26 | 59.62368 | 5.30731 | 36505 ft | 431 kts | 174° |
| 2026-04-21 15:26 | 59.56373 | 5.31552 | 36515 ft | 431 kts | 175° |
| 2026-04-21 15:27 | 59.50375 | 5.32370 | 36509 ft | 431 kts | 175° |
| 2026-04-21 15:27 | 59.44372 | 5.33164 | 36516 ft | 431 kts | 175° |
| 2026-04-21 15:28 | 59.38418 | 5.33947 | 36515 ft | 430 kts | 175° |
| 2026-04-21 15:28 | 59.32440 | 5.34750 | 36510 ft | 430 kts | 175° |
| 2026-04-21 15:29 | 59.26469 | 5.35548 | 36506 ft | 430 kts | 175° |
| 2026-04-21 15:29 | 59.20492 | 5.36336 | 36510 ft | 429 kts | 175° |
| 2026-04-21 15:30 | 59.14483 | 5.37121 | 36513 ft | 429 kts | 175° |
| 2026-04-21 15:30 | 59.08516 | 5.37896 | 36504 ft | 428 kts | 175° |
| 2026-04-21 15:31 | 59.02592 | 5.38673 | 36504 ft | 428 kts | 175° |
| 2026-04-21 15:31 | 58.96644 | 5.39457 | 36501 ft | 428 kts | 175° |
| 2026-04-21 15:32 | 58.90689 | 5.40233 | 36514 ft | 428 kts | 175° |
| 2026-04-21 15:32 | 58.84747 | 5.41006 | 36509 ft | 427 kts | 175° |
| 2026-04-21 15:33 | 58.78823 | 5.41767 | 36505 ft | 426 kts | 175° |
| 2026-04-21 15:33 | 58.72904 | 5.42534 | 36511 ft | 425 kts | 175° |
| 2026-04-21 15:34 | 58.67025 | 5.43292 | 36495 ft | 425 kts | 175° |
| 2026-04-21 15:34 | 58.61109 | 5.44039 | 36485 ft | 425 kts | 175° |
| 2026-04-21 15:35 | 58.55195 | 5.44793 | 36480 ft | 425 kts | 175° |
| 2026-04-21 15:35 | 58.49291 | 5.45546 | 36481 ft | 425 kts | 174° |
| 2026-04-21 15:36 | 58.43416 | 5.46292 | 36476 ft | 425 kts | 175° |
| 2026-04-21 15:36 | 58.37501 | 5.47036 | 36472 ft | 425 kts | 174° |
| 2026-04-21 15:37 | 58.31584 | 5.47786 | 36480 ft | 425 kts | 175° |
| 2026-04-21 15:37 | 58.25660 | 5.48529 | 36478 ft | 426 kts | 175° |
| 2026-04-21 15:38 | 58.19735 | 5.49261 | 36480 ft | 426 kts | 175° |
| 2026-04-21 15:38 | 58.13845 | 5.49996 | 36481 ft | 426 kts | 175° |
| 2026-04-21 15:39 | 58.07901 | 5.50742 | 36491 ft | 427 kts | 174° |
| 2026-04-21 15:39 | 58.01964 | 5.51478 | 36493 ft | 427 kts | 175° |
| 2026-04-21 15:40 | 57.96030 | 5.52210 | 36488 ft | 427 kts | 175° |
| 2026-04-21 15:40 | 57.90089 | 5.52931 | 36486 ft | 427 kts | 175° |
| 2026-04-21 15:41 | 57.84162 | 5.53666 | 36489 ft | 427 kts | 175° |
| 2026-04-21 15:41 | 57.78230 | 5.54384 | 36496 ft | 427 kts | 175° |
| 2026-04-21 15:42 | 57.73260 | 5.54972 | 36489 ft | 427 kts | 175° |
| 2026-04-21 15:42 | 57.67328 | 5.55691 | 36492 ft | 427 kts | 175° |
| 2026-04-21 15:43 | 57.61389 | 5.56419 | 36488 ft | 427 kts | 175° |
| 2026-04-21 15:43 | 57.55434 | 5.57137 | 36488 ft | 428 kts | 175° |
| 2026-04-21 15:44 | 57.49477 | 5.57851 | 36495 ft | 428 kts | 175° |
| 2026-04-21 15:44 | 57.43526 | 5.58570 | 36495 ft | 429 kts | 175° |
| 2026-04-21 15:45 | 57.37597 | 5.59277 | 36493 ft | 429 kts | 175° |
| 2026-04-21 15:45 | 57.31625 | 5.59989 | 36497 ft | 429 kts | 175° |
| 2026-04-21 15:46 | 57.25654 | 5.60699 | 36498 ft | 429 kts | 175° |
| 2026-04-21 15:46 | 57.19676 | 5.61407 | 36500 ft | 429 kts | 175° |
| 2026-04-21 15:47 | 57.13709 | 5.62105 | 36499 ft | 429 kts | 175° |
| 2026-04-21 15:47 | 57.07743 | 5.62819 | 36495 ft | 429 kts | 175° |
| 2026-04-21 15:48 | 57.01767 | 5.63511 | 36492 ft | 429 kts | 175° |
| 2026-04-21 15:48 | 56.95838 | 5.64189 | 36499 ft | 429 kts | 175° |
| 2026-04-21 15:49 | 56.89861 | 5.64872 | 36491 ft | 430 kts | 174° |
| 2026-04-21 15:49 | 56.83872 | 5.65575 | 36491 ft | 430 kts | 174° |
| 2026-04-21 15:50 | 56.77858 | 5.66289 | 36490 ft | 430 kts | 174° |
| 2026-04-21 15:50 | 56.71771 | 5.66975 | 36490 ft | 431 kts | 175° |
| 2026-04-21 15:51 | 56.65787 | 5.67661 | 36495 ft | 431 kts | 174° |
| 2026-04-21 15:51 | 56.59823 | 5.68342 | 36490 ft | 431 kts | 174° |
| 2026-04-21 15:52 | 56.53831 | 5.69036 | 36490 ft | 431 kts | 174° |
| 2026-04-21 15:52 | 56.47822 | 5.69719 | 36486 ft | 431 kts | 174° |
| 2026-04-21 15:53 | 56.41812 | 5.70398 | 36489 ft | 432 kts | 174° |
| 2026-04-21 15:53 | 56.35807 | 5.71080 | 36484 ft | 432 kts | 174° |
| 2026-04-21 15:54 | 56.29795 | 5.71757 | 36485 ft | 432 kts | 174° |
| 2026-04-21 15:54 | 56.23776 | 5.72435 | 36476 ft | 433 kts | 174° |
| 2026-04-21 15:55 | 56.17746 | 5.73114 | 36477 ft | 433 kts | 174° |
| 2026-04-21 15:55 | 56.11759 | 5.73776 | 36478 ft | 433 kts | 174° |
| 2026-04-21 15:56 | 56.05711 | 5.74445 | 36478 ft | 434 kts | 174° |
| 2026-04-21 15:56 | 55.99673 | 5.75108 | 36478 ft | 434 kts | 174° |
| 2026-04-21 15:57 | 55.93635 | 5.75775 | 36473 ft | 434 kts | 174° |
| 2026-04-21 15:57 | 55.87591 | 5.76439 | 36473 ft | 435 kts | 174° |
| 2026-04-21 15:58 | 55.81544 | 5.77109 | 36469 ft | 435 kts | 174° |
| 2026-04-21 15:58 | 55.75527 | 5.77778 | 36470 ft | 435 kts | 174° |
| 2026-04-21 15:59 | 55.69472 | 5.78431 | 36468 ft | 435 kts | 174° |
| 2026-04-21 15:59 | 55.63372 | 5.79089 | 36479 ft | 435 kts | 174° |
| 2026-04-21 16:00 | 55.57355 | 5.79743 | 36470 ft | 436 kts | 174° |
| 2026-04-21 16:00 | 55.51292 | 5.80409 | 36459 ft | 436 kts | 174° |
| 2026-04-21 16:01 | 55.45218 | 5.81066 | 36457 ft | 436 kts | 174° |
| 2026-04-21 16:01 | 55.39105 | 5.81712 | 36456 ft | 436 kts | 174° |
| 2026-04-21 16:02 | 55.33039 | 5.82362 | 36456 ft | 437 kts | 174° |
| 2026-04-21 16:02 | 55.26965 | 5.83019 | 36452 ft | 437 kts | 174° |
| 2026-04-21 16:03 | 55.20886 | 5.83663 | 36451 ft | 437 kts | 174° |
| 2026-04-21 16:03 | 55.14805 | 5.84304 | 36450 ft | 437 kts | 174° |
| 2026-04-21 16:04 | 55.08721 | 5.84933 | 36454 ft | 438 kts | 174° |
| 2026-04-21 16:04 | 55.03648 | 5.85476 | 36448 ft | 438 kts | 174° |
| 2026-04-21 16:05 | 54.97544 | 5.85133 | 36440 ft | 442 kts | 188° |
| 2026-04-21 16:05 | 54.91467 | 5.83240 | 36436 ft | 443 kts | 187° |
| 2026-04-21 16:06 | 54.85393 | 5.81398 | 36444 ft | 443 kts | 187° |
| 2026-04-21 16:06 | 54.79347 | 5.79573 | 36427 ft | 443 kts | 187° |
| 2026-04-21 16:07 | 54.73250 | 5.77727 | 36420 ft | 444 kts | 187° |
| 2026-04-21 16:07 | 54.67158 | 5.75879 | 36423 ft | 444 kts | 187° |
| 2026-04-21 16:08 | 54.57941 | 5.73106 | 36428 ft | 445 kts | 187° |
| 2026-04-21 16:09 | 54.51827 | 5.71275 | 36424 ft | 445 kts | 187° |
| 2026-04-21 16:09 | 54.45711 | 5.69452 | 36424 ft | 446 kts | 187° |
| 2026-04-21 16:10 | 54.39592 | 5.67632 | 36418 ft | 446 kts | 187° |
| 2026-04-21 16:10 | 54.33471 | 5.65815 | 36421 ft | 446 kts | 187° |
| 2026-04-21 16:11 | 54.27339 | 5.63989 | 36418 ft | 447 kts | 188° |
| 2026-04-21 16:11 | 54.21188 | 5.62176 | 36417 ft | 448 kts | 187° |
| 2026-04-21 16:12 | 54.15003 | 5.60359 | 36416 ft | 448 kts | 187° |
| 2026-04-21 16:12 | 54.08891 | 5.58563 | 36421 ft | 448 kts | 188° |
| 2026-04-21 16:13 | 54.02731 | 5.56760 | 36413 ft | 449 kts | 188° |
| 2026-04-21 16:13 | 53.96523 | 5.54940 | 36408 ft | 450 kts | 187° |
| 2026-04-21 16:14 | 53.90381 | 5.53151 | 36405 ft | 450 kts | 187° |
| 2026-04-21 16:14 | 53.84081 | 5.51323 | 36405 ft | 450 kts | 188° |
| 2026-04-21 16:15 | 53.77930 | 5.49549 | 36386 ft | 451 kts | 187° |
| 2026-04-21 16:15 | 53.71711 | 5.47760 | 36378 ft | 452 kts | 187° |
| 2026-04-21 16:16 | 53.65497 | 5.45968 | 36381 ft | 453 kts | 187° |
| 2026-04-21 16:16 | 53.59278 | 5.44187 | 36363 ft | 454 kts | 188° |
| 2026-04-21 16:17 | 53.53037 | 5.42402 | 36371 ft | 455 kts | 188° |
| 2026-04-21 16:17 | 53.46775 | 5.40613 | 36375 ft | 456 kts | 188° |
| 2026-04-21 16:18 | 53.40512 | 5.38818 | 36366 ft | 457 kts | 188° |
| 2026-04-21 16:18 | 53.34236 | 5.37040 | 36385 ft | 457 kts | 188° |
| 2026-04-21 16:19 | 53.27961 | 5.35280 | 36379 ft | 458 kts | 188° |
| 2026-04-21 16:19 | 53.21633 | 5.33507 | 36385 ft | 458 kts | 188° |
| 2026-04-21 16:20 | 53.15343 | 5.31731 | 36380 ft | 458 kts | 188° |
| 2026-04-21 16:20 | 53.09083 | 5.29985 | 36369 ft | 459 kts | 188° |
| 2026-04-21 16:21 | 53.02728 | 5.28225 | 36349 ft | 460 kts | 189° |
| 2026-04-21 16:21 | 52.96402 | 5.26473 | 36351 ft | 461 kts | 188° |
| 2026-04-21 16:22 | 52.90053 | 5.24706 | 36342 ft | 462 kts | 188° |
| 2026-04-21 16:22 | 52.83709 | 5.22939 | 36354 ft | 462 kts | 189° |
| 2026-04-21 16:23 | 52.77339 | 5.21182 | 36342 ft | 463 kts | 188° |
| 2026-04-21 16:23 | 52.70973 | 5.19434 | 36348 ft | 463 kts | 188° |
| 2026-04-21 16:24 | 52.64611 | 5.17691 | 36332 ft | 464 kts | 189° |
| 2026-04-21 16:24 | 52.58175 | 5.15938 | 36339 ft | 464 kts | 189° |
| 2026-04-21 16:25 | 52.52827 | 5.14483 | 36334 ft | 463 kts | 189° |
| 2026-04-21 16:25 | 52.46463 | 5.12742 | 36337 ft | 464 kts | 189° |
| 2026-04-21 16:26 | 52.40043 | 5.10990 | 36346 ft | 464 kts | 189° |
| 2026-04-21 16:26 | 52.33698 | 5.08962 | 36334 ft | 463 kts | 198° |
| 2026-04-21 16:27 | 52.27813 | 5.04713 | 36340 ft | 461 kts | 207° |
| 2026-04-21 16:27 | 52.22045 | 5.00107 | 36327 ft | 461 kts | 206° |
| 2026-04-21 16:28 | 52.16233 | 4.95496 | 36345 ft | 461 kts | 207° |
| 2026-04-21 16:28 | 52.10425 | 4.90907 | 36335 ft | 461 kts | 207° |